createdAt,value
2023-05-06T00:00:57.218Z,7.50
2023-05-06T00:03:23.771Z,6.15
2023-05-06T00:05:50.359Z,5.80
2023-05-06T00:08:16.923Z,6.70
2023-05-06T00:10:43.414Z,5.80
2023-05-06T00:13:09.920Z,6.05
2023-05-06T00:15:36.876Z,5.70
2023-05-06T00:18:03.452Z,6.18
2023-05-06T00:20:29.949Z,6.30
2023-05-06T00:22:56.447Z,6.40
2023-05-06T00:25:22.931Z,6.95
2023-05-06T00:27:49.453Z,7.05
2023-05-06T00:30:15.958Z,6.25
2023-05-06T00:32:42.710Z,7.13
2023-05-06T00:35:09.819Z,7.00
2023-05-06T00:37:36.463Z,6.45
2023-05-06T00:40:03.567Z,6.63
2023-05-06T00:42:30.025Z,6.75
2023-05-06T00:44:56.534Z,6.77
2023-05-06T00:47:24.570Z,6.97
2023-05-06T00:49:51.425Z,6.05
2023-05-06T00:52:19.433Z,6.60
2023-05-06T00:54:46.232Z,6.03
2023-05-06T00:57:13.181Z,6.53
2023-05-06T00:59:39.761Z,7.22
2023-05-06T01:02:06.222Z,6.47
2023-05-06T01:04:33.710Z,7.47
2023-05-06T01:07:25.095Z,7.57
2023-05-06T01:09:57.237Z,8.20
2023-05-06T01:12:34.011Z,8.00
2023-05-06T01:15:25.387Z,8.02
2023-05-06T01:17:53.801Z,7.70
2023-05-06T01:20:21.584Z,7.53
2023-05-06T01:22:49.667Z,7.43
2023-05-06T01:25:20.568Z,6.45
2023-05-06T01:27:47.084Z,7.30
2023-05-06T01:30:16.392Z,7.65
2023-05-06T01:32:50.004Z,8.63
2023-05-06T01:35:53.826Z,8.20
2023-05-06T01:38:52.882Z,8.00
2023-05-06T01:41:21.321Z,8.32
2023-05-06T01:43:49.010Z,8.65
2023-05-06T01:46:18.926Z,8.82
2023-05-06T01:48:46.890Z,8.80
2023-05-06T01:51:13.326Z,8.80
2023-05-06T01:53:39.849Z,9.00
2023-05-06T01:56:06.971Z,9.27
2023-05-06T01:58:33.445Z,8.80
2023-05-06T02:00:59.837Z,8.93
2023-05-06T02:03:26.917Z,8.00
2023-05-06T02:05:53.407Z,7.97
2023-05-06T02:08:20.313Z,7.72
2023-05-06T02:10:46.757Z,8.20
2023-05-06T02:13:13.273Z,8.23
2023-05-06T02:15:39.705Z,8.55
2023-05-06T02:18:06.186Z,8.80
2023-05-06T02:20:32.636Z,8.65
2023-05-06T02:22:59.060Z,8.98
2023-05-06T02:25:25.516Z,8.20
2023-05-06T02:27:51.966Z,8.25
2023-05-06T02:30:18.482Z,8.45
2023-05-06T02:32:44.977Z,7.93
2023-05-06T02:35:11.610Z,8.85
2023-05-06T02:37:38.312Z,7.57
2023-05-06T02:40:06.624Z,8.30
2023-05-06T02:42:35.374Z,8.18
2023-05-06T02:45:02.561Z,8.27
2023-05-06T02:47:29.037Z,8.38
2023-05-06T02:49:55.651Z,7.77
2023-05-06T02:52:22.089Z,7.85
2023-05-06T02:54:48.668Z,8.13
2023-05-06T02:57:15.124Z,8.20
2023-05-06T02:59:41.609Z,8.55
2023-05-06T03:02:08.136Z,8.80
2023-05-06T03:04:34.632Z,8.57
2023-05-06T03:07:01.090Z,8.02
2023-05-06T03:09:27.537Z,8.50
2023-05-06T03:11:53.931Z,8.68
2023-05-06T03:14:20.726Z,8.63
2023-05-06T03:16:47.251Z,8.32
2023-05-06T03:19:13.811Z,8.13
2023-05-06T03:21:40.724Z,7.88
2023-05-06T03:24:07.346Z,8.80
2023-05-06T03:26:33.801Z,8.40
2023-05-06T03:29:00.264Z,8.52
2023-05-06T03:31:26.958Z,9.02
2023-05-06T03:33:53.391Z,7.82
2023-05-06T03:36:19.974Z,8.25
2023-05-06T03:38:46.386Z,8.37
2023-05-06T03:41:12.969Z,8.13
2023-05-06T03:43:39.949Z,9.07
2023-05-06T03:46:06.463Z,7.55
2023-05-06T03:48:32.934Z,7.78
2023-05-06T03:50:59.485Z,8.40
2023-05-06T03:53:25.994Z,8.70
2023-05-06T03:55:52.507Z,8.75
2023-05-06T03:58:18.973Z,8.38
2023-05-06T04:00:45.738Z,8.60
2023-05-06T04:03:12.338Z,7.93
2023-05-06T04:05:38.891Z,8.68
2023-05-06T04:08:05.587Z,7.80
2023-05-06T04:10:32.327Z,7.88
2023-05-06T04:12:58.787Z,8.82
2023-05-06T04:15:25.262Z,8.03
2023-05-06T04:17:51.733Z,8.10
2023-05-06T04:20:18.325Z,8.68
2023-05-06T04:22:44.748Z,7.95
2023-05-06T04:25:12.076Z,8.13
2023-05-06T04:27:38.801Z,8.20
2023-05-06T04:30:05.807Z,8.50
2023-05-06T04:32:34.131Z,8.48
2023-05-06T04:35:00.717Z,8.45
2023-05-06T04:37:28.335Z,10.18
2023-05-06T04:39:55.823Z,8.47
2023-05-06T04:42:22.263Z,8.95
2023-05-06T04:44:49.190Z,9.63
2023-05-06T04:47:16.173Z,9.18
2023-05-06T04:49:42.612Z,8.65
2023-05-06T04:52:09.091Z,9.10
2023-05-06T04:54:35.670Z,9.07
2023-05-06T04:57:03.441Z,9.63
2023-05-06T04:59:29.887Z,12.95
2023-05-06T05:01:56.325Z,12.05
2023-05-06T05:04:22.806Z,11.27
2023-05-06T05:06:49.265Z,12.02
2023-05-06T05:09:15.962Z,11.05
2023-05-06T05:11:42.440Z,10.50
2023-05-06T05:14:08.879Z,11.35
2023-05-06T05:16:35.614Z,10.13
2023-05-06T05:19:03.740Z,10.55
2023-05-06T05:21:30.698Z,10.52
2023-05-06T05:23:57.190Z,10.15
2023-05-06T05:26:23.638Z,10.40
2023-05-06T05:28:50.139Z,9.30
2023-05-06T05:31:16.622Z,10.13
2023-05-06T05:33:43.231Z,10.50
2023-05-06T05:36:12.355Z,11.07
2023-05-06T05:38:38.786Z,11.82
2023-05-06T05:41:05.336Z,10.20
2023-05-06T05:43:31.888Z,11.77
2023-05-06T05:45:58.399Z,11.27
2023-05-06T05:48:24.841Z,11.80
2023-05-06T05:50:51.276Z,12.73
2023-05-06T05:53:17.761Z,12.07
2023-05-06T05:55:44.176Z,12.85
2023-05-06T05:58:11.644Z,12.70
2023-05-06T06:00:38.110Z,12.05
2023-05-06T06:03:04.787Z,12.80
2023-05-06T06:05:31.366Z,12.27
2023-05-06T06:07:58.745Z,11.90
2023-05-06T06:10:25.536Z,12.10
2023-05-06T06:12:52.227Z,12.02
2023-05-06T06:15:18.725Z,12.85
2023-05-06T06:17:45.386Z,11.60
2023-05-06T06:20:12.828Z,11.68
2023-05-06T06:22:39.336Z,11.95
2023-05-06T06:25:06.295Z,13.23
2023-05-06T06:27:36.651Z,13.55
2023-05-06T06:30:04.862Z,13.10
2023-05-06T06:32:31.367Z,12.82
2023-05-06T06:34:57.867Z,12.95
2023-05-06T06:37:24.392Z,12.68
2023-05-06T06:39:50.884Z,12.45
2023-05-06T06:42:17.454Z,13.13
2023-05-06T06:44:44.102Z,12.32
2023-05-06T06:47:10.567Z,12.27
2023-05-06T06:49:36.987Z,13.05
2023-05-06T06:52:03.533Z,13.55
2023-05-06T06:54:29.947Z,12.80
2023-05-06T06:56:57.358Z,12.88
2023-05-06T06:59:23.994Z,13.43
2023-05-06T07:01:51.155Z,13.10
2023-05-06T07:04:17.637Z,12.77
2023-05-06T07:06:44.272Z,13.63
2023-05-06T07:09:10.814Z,12.13
2023-05-06T07:11:37.287Z,13.65
2023-05-06T07:14:03.749Z,13.10
2023-05-06T07:16:30.290Z,14.15
2023-05-06T07:18:56.790Z,14.10
2023-05-06T07:21:23.275Z,14.15
2023-05-06T07:23:50.295Z,12.95
2023-05-06T07:26:16.728Z,13.68
2023-05-06T07:28:43.213Z,12.25
2023-05-06T07:31:09.846Z,13.47
2023-05-06T07:33:36.384Z,13.25
2023-05-06T07:36:03.136Z,12.98
2023-05-06T07:38:29.579Z,12.45
2023-05-06T07:40:56.105Z,13.18
2023-05-06T07:43:22.975Z,13.13
2023-05-06T07:45:49.645Z,13.70
2023-05-06T07:48:18.608Z,14.95
2023-05-06T07:50:46.241Z,14.20
2023-05-06T07:53:13.911Z,13.38
2023-05-06T07:55:40.437Z,14.20
2023-05-06T07:58:06.946Z,14.10
2023-05-06T08:00:33.419Z,14.00
2023-05-06T08:03:00.113Z,14.13
2023-05-06T08:05:27.005Z,13.82
2023-05-06T08:07:54.163Z,13.40
2023-05-06T08:10:22.217Z,15.45
2023-05-06T08:12:49.097Z,14.13
2023-05-06T08:15:16.326Z,13.88
2023-05-06T08:17:42.865Z,13.32
2023-05-06T08:20:10.431Z,14.30
2023-05-06T08:22:36.916Z,14.60
2023-05-06T08:25:03.715Z,14.75
2023-05-06T08:27:30.177Z,14.43
2023-05-06T08:29:56.716Z,13.60
2023-05-06T08:32:23.400Z,15.27
2023-05-06T08:34:49.906Z,14.45
2023-05-06T08:37:16.393Z,12.93
2023-05-06T08:39:42.890Z,14.57
2023-05-06T08:42:11.327Z,14.70
2023-05-06T08:44:38.190Z,14.37
2023-05-06T08:47:05.156Z,14.00
2023-05-06T08:49:32.114Z,13.73
2023-05-06T08:51:59.322Z,14.98
2023-05-06T08:54:26.633Z,13.63
2023-05-06T08:56:56.764Z,14.00
2023-05-06T08:59:25.454Z,13.13
2023-05-06T09:01:53.362Z,12.73
2023-05-06T09:04:19.930Z,12.80
2023-05-06T09:06:46.386Z,13.02
2023-05-06T09:09:14.827Z,13.10
2023-05-06T09:11:41.472Z,13.10
2023-05-06T09:14:17.841Z,12.95
2023-05-06T09:16:46.938Z,12.80
2023-05-06T09:19:15.882Z,12.73
2023-05-06T09:21:44.557Z,12.63
2023-05-06T09:24:12.495Z,13.25
2023-05-06T09:26:40.879Z,12.23
2023-05-06T09:29:07.419Z,11.52
2023-05-06T09:31:40.929Z,12.95
2023-05-06T09:34:07.706Z,11.93
2023-05-06T09:36:34.239Z,11.65
2023-05-06T09:39:00.843Z,12.45
2023-05-06T09:41:27.455Z,10.95
2023-05-06T09:43:55.293Z,11.63
2023-05-06T09:46:23.305Z,11.40
2023-05-06T09:48:51.554Z,11.98
2023-05-06T09:51:18.866Z,12.48
2023-05-06T09:53:45.618Z,14.05
2023-05-06T09:56:13.523Z,13.48
2023-05-06T09:58:40.791Z,13.67
2023-05-06T10:01:09.054Z,12.13
2023-05-06T10:03:36.946Z,12.20
2023-05-06T10:06:06.018Z,11.82
2023-05-06T10:08:33.854Z,13.05
2023-05-06T10:11:01.573Z,12.60
2023-05-06T10:13:28.345Z,11.77
2023-05-06T10:15:55.275Z,12.77
2023-05-06T10:18:22.291Z,11.40
2023-05-06T10:20:53.574Z,11.30
2023-05-06T10:23:37.640Z,12.90
2023-05-06T10:26:10.590Z,11.30
2023-05-06T10:28:41.979Z,9.63
2023-05-06T10:31:15.878Z,11.30
2023-05-06T10:33:46.076Z,10.75
2023-05-06T10:36:21.403Z,10.53
2023-05-06T10:38:56.630Z,10.40
2023-05-06T10:41:26.164Z,10.45
2023-05-06T10:43:56.788Z,10.55
2023-05-06T10:46:26.533Z,9.82
2023-05-06T10:49:11.621Z,9.63
2023-05-06T10:51:38.894Z,9.43
2023-05-06T10:54:22.925Z,10.13
2023-05-06T10:56:49.711Z,9.25
2023-05-06T10:59:21.667Z,10.43
2023-05-06T11:01:55.984Z,10.07
2023-05-06T11:04:22.820Z,8.32
2023-05-06T11:06:50.860Z,7.25
2023-05-06T11:09:26.741Z,6.72
2023-05-06T11:12:03.281Z,7.53
2023-05-06T11:14:37.821Z,6.53
2023-05-06T11:17:31.669Z,6.75
2023-05-06T11:20:22.964Z,8.07
2023-05-06T11:22:49.665Z,6.28
2023-05-06T11:25:42.998Z,6.18
2023-05-06T11:28:14.849Z,6.63
2023-05-06T11:30:54.988Z,6.45
2023-05-06T11:33:24.446Z,5.43
2023-05-06T11:35:50.898Z,6.90
2023-05-06T11:38:17.335Z,5.63
2023-05-06T11:40:43.786Z,6.27
2023-05-06T11:43:16.976Z,7.07
2023-05-06T11:45:45.446Z,7.05
2023-05-06T11:48:16.703Z,7.68
2023-05-06T11:50:47.382Z,7.75
2023-05-06T11:53:17.016Z,8.40
2023-05-06T11:55:44.606Z,8.40
2023-05-06T11:58:19.078Z,7.55
2023-05-06T12:00:52.890Z,7.28
2023-05-06T12:03:21.472Z,8.60
2023-05-06T12:05:49.049Z,7.73
2023-05-06T12:08:35.899Z,8.57
2023-05-06T12:11:06.335Z,7.57
2023-05-06T12:13:36.590Z,8.40
2023-05-06T12:16:05.686Z,7.63
2023-05-06T12:18:32.382Z,6.95
2023-05-06T12:21:02.597Z,6.57
2023-05-06T12:26:04.039Z,7.60
2023-05-06T12:28:32.500Z,7.13
2023-05-06T12:30:59.284Z,6.90
2023-05-06T12:33:26.014Z,7.25
2023-05-06T12:35:54.724Z,7.32
2023-05-06T12:38:21.305Z,6.88
2023-05-06T12:40:54.113Z,7.18
2023-05-06T12:43:29.312Z,7.72
2023-05-06T12:46:07.253Z,7.57
2023-05-06T12:48:33.883Z,7.70
2023-05-06T12:51:00.330Z,7.22
2023-05-06T12:53:35.233Z,7.47
2023-05-06T12:56:01.644Z,7.00
2023-05-06T12:58:28.126Z,7.32
2023-05-06T13:00:54.579Z,8.00
2023-05-06T13:03:21.152Z,8.88
2023-05-06T13:05:50.103Z,7.38
2023-05-06T13:08:16.664Z,8.73
2023-05-06T13:10:43.112Z,8.55
2023-05-06T13:13:09.573Z,8.77
2023-05-06T13:15:36.370Z,9.23
2023-05-06T13:18:02.999Z,8.23
2023-05-06T13:20:30.451Z,9.10
2023-05-06T13:22:57.207Z,9.73
2023-05-06T13:25:23.751Z,9.88
2023-05-06T13:27:50.213Z,9.32
2023-05-06T13:30:17.108Z,9.27
2023-05-06T13:32:45.421Z,8.67
2023-05-06T13:35:12.097Z,10.00
2023-05-06T13:37:38.783Z,10.40
2023-05-06T13:40:06.399Z,8.98
2023-05-06T13:42:33.088Z,8.18
2023-05-06T13:44:59.560Z,7.27
2023-05-06T13:47:26.862Z,6.55
2023-05-06T13:49:53.396Z,8.07
2023-05-06T13:52:19.804Z,7.32
2023-05-06T13:54:46.301Z,7.38
2023-05-06T13:57:13.250Z,6.90
2023-05-06T13:59:39.752Z,6.43
2023-05-06T14:02:09.373Z,6.85
2023-05-06T14:04:36.446Z,5.28
2023-05-06T14:07:02.982Z,3.80
2023-05-06T14:09:29.444Z,3.47
2023-05-06T14:11:55.936Z,3.50
2023-05-06T14:14:22.356Z,3.13
2023-05-06T14:16:48.945Z,3.30
2023-05-06T14:19:15.399Z,2.90
2023-05-06T14:21:41.847Z,2.37
2023-05-06T14:24:10.138Z,2.65
2023-05-06T14:26:36.586Z,2.45
2023-05-06T14:29:03.822Z,2.85
2023-05-06T14:31:30.372Z,2.10
2023-05-06T14:33:57.358Z,2.80
2023-05-06T14:36:23.834Z,2.67
2023-05-06T14:38:50.374Z,2.88
2023-05-06T14:41:16.860Z,2.53
2023-05-06T14:43:43.297Z,2.30
2023-05-06T14:46:11.226Z,2.72
2023-05-06T14:48:37.781Z,2.28
2023-05-06T14:51:04.215Z,2.33
2023-05-06T14:53:30.702Z,2.13
2023-05-06T14:55:57.131Z,2.65
2023-05-06T14:58:23.581Z,1.83
2023-05-06T15:00:50.098Z,1.92
2023-05-06T15:03:16.681Z,1.80
2023-05-06T15:05:43.230Z,2.10
2023-05-06T15:08:10.112Z,2.10
2023-05-06T15:10:36.676Z,1.97
2023-05-06T15:13:04.087Z,2.00
2023-05-06T15:15:30.577Z,1.80
2023-05-06T15:17:57.035Z,2.08
2023-05-06T15:20:23.577Z,2.05
2023-05-06T15:22:50.155Z,2.03
2023-05-06T15:25:26.564Z,2.60
2023-05-06T15:27:57.269Z,2.40
2023-05-06T15:30:23.787Z,2.63
2023-05-06T15:32:50.278Z,3.33
2023-05-06T15:35:16.756Z,2.70
2023-05-06T15:37:46.532Z,2.50
2023-05-06T15:40:13.390Z,2.35
2023-05-06T15:42:40.359Z,2.33
2023-05-06T15:45:07.682Z,3.08
2023-05-06T15:47:34.160Z,3.03
2023-05-06T15:50:01.589Z,3.13
2023-05-06T15:52:28.585Z,3.38
2023-05-06T15:54:59.484Z,2.17
2023-05-06T15:57:26.440Z,2.05
2023-05-06T15:59:52.876Z,1.80
2023-05-06T16:04:48.992Z,2.10
2023-05-06T16:07:15.670Z,2.30
2023-05-06T16:09:42.949Z,2.20
2023-05-06T16:12:10.058Z,2.60
2023-05-06T16:14:36.691Z,2.50
2023-05-06T16:17:03.518Z,2.80
2023-05-06T16:19:32.056Z,2.38
2023-05-06T16:21:58.580Z,3.13
2023-05-06T16:24:25.102Z,2.50
2023-05-06T16:26:51.885Z,2.30
2023-05-06T16:29:20.538Z,1.92
2023-05-06T16:31:47.804Z,2.47
2023-05-06T16:34:14.858Z,2.30
2023-05-06T16:36:41.557Z,1.70
2023-05-06T16:39:08.652Z,2.08
2023-05-06T16:41:35.230Z,2.53
2023-05-06T16:44:02.009Z,2.22
2023-05-06T16:46:28.877Z,2.00
2023-05-06T16:48:55.945Z,2.25
2023-05-06T16:51:22.659Z,2.15
2023-05-06T16:53:49.340Z,1.85
2023-05-06T16:56:16.088Z,1.90
2023-05-06T16:58:42.939Z,2.03
2023-05-06T17:01:09.702Z,2.00
2023-05-06T17:03:40.306Z,1.90
2023-05-06T17:06:07.319Z,1.63
2023-05-06T17:08:36.244Z,2.03
2023-05-06T17:11:06.743Z,2.40
2023-05-06T17:13:33.824Z,4.97
2023-05-06T17:16:00.424Z,8.52
2023-05-06T17:18:27.150Z,2.22
2023-05-06T17:20:56.683Z,2.13
2023-05-06T17:23:23.823Z,1.80
2023-05-06T17:25:50.942Z,2.08
2023-05-06T17:28:18.662Z,1.70
2023-05-06T17:30:45.690Z,1.88
2023-05-06T17:33:12.182Z,1.87
2023-05-06T17:35:38.596Z,1.77
2023-05-06T17:38:05.237Z,1.70
2023-05-06T17:40:32.032Z,1.60
2023-05-06T17:42:58.466Z,1.42
2023-05-06T17:45:26.747Z,1.43
2023-05-06T17:47:53.455Z,1.67
2023-05-06T17:50:20.934Z,1.55
2023-05-06T17:52:50.710Z,1.90
2023-05-06T17:55:17.893Z,2.22
2023-05-06T17:57:44.466Z,1.93
2023-05-06T18:00:11.916Z,1.90
2023-05-06T18:02:38.778Z,2.30
2023-05-06T18:05:06.566Z,2.80
2023-05-06T18:07:33.182Z,2.55
2023-05-06T18:09:59.762Z,2.53
2023-05-06T18:12:26.594Z,3.17
2023-05-06T18:14:55.287Z,3.08
2023-05-06T18:17:21.803Z,2.90
2023-05-06T18:19:48.409Z,3.63
2023-05-06T18:22:14.896Z,3.77
2023-05-06T18:24:41.340Z,3.85
2023-05-06T18:27:07.782Z,4.25
2023-05-06T18:29:35.111Z,5.28
2023-05-06T18:32:02.158Z,5.90
2023-05-06T18:34:28.768Z,4.77
2023-05-06T18:36:55.288Z,5.35
2023-05-06T18:39:25.997Z,5.55
2023-05-06T18:41:52.518Z,5.63
2023-05-06T18:44:19.387Z,5.45
2023-05-06T18:46:46.200Z,6.60
2023-05-06T18:49:14.406Z,5.45
2023-05-06T18:51:40.896Z,6.53
2023-05-06T18:54:07.627Z,6.45
2023-05-06T18:56:34.790Z,6.28
2023-05-06T18:59:01.243Z,7.03
2023-05-06T19:01:27.795Z,6.55
2023-05-06T19:03:54.543Z,6.53
2023-05-06T19:06:21.300Z,6.57
2023-05-06T19:08:47.714Z,6.93
2023-05-06T19:11:16.163Z,7.10
2023-05-06T19:13:43.747Z,7.13
2023-05-06T19:16:10.939Z,6.47
2023-05-06T19:18:37.433Z,6.85
2023-05-06T19:21:04.460Z,6.55
2023-05-06T19:23:32.828Z,7.87
2023-05-06T19:25:59.360Z,7.32
2023-05-06T19:28:26.100Z,7.55
2023-05-06T19:30:53.231Z,7.22
2023-05-06T19:33:19.717Z,7.78
2023-05-06T19:35:46.122Z,7.97
2023-05-06T19:38:13.142Z,7.88
2023-05-06T19:40:39.694Z,7.03
2023-05-06T19:43:06.177Z,7.57
2023-05-06T19:45:34.086Z,8.02
2023-05-06T19:48:01.213Z,8.10
2023-05-06T19:50:28.674Z,7.93
2023-05-06T19:52:55.212Z,8.35
2023-05-06T19:55:22.188Z,9.23
2023-05-06T19:57:49.828Z,8.90
2023-05-06T20:00:18.274Z,9.37
2023-05-06T20:02:45.369Z,9.45
2023-05-06T20:05:12.374Z,9.48
2023-05-06T20:07:39.452Z,9.05
2023-05-06T20:10:06.615Z,10.15
2023-05-06T20:12:33.391Z,10.17
2023-05-06T20:15:01.029Z,10.43
2023-05-06T20:17:27.606Z,10.20
2023-05-06T20:19:58.476Z,11.05
2023-05-06T20:22:26.021Z,10.55
2023-05-06T20:24:53.203Z,15.67
2023-05-06T20:27:22.540Z,14.75
2023-05-06T20:29:51.592Z,37.78
2023-05-06T20:32:18.160Z,13.77
2023-05-06T20:34:44.603Z,11.43
2023-05-06T20:37:11.916Z,11.43
2023-05-06T20:39:38.322Z,11.52
2023-05-06T20:42:04.796Z,12.10
2023-05-06T20:44:31.339Z,12.05
2023-05-06T20:46:57.844Z,12.38
2023-05-06T20:49:24.290Z,12.83
2023-05-06T20:51:50.903Z,12.07
2023-05-06T20:54:18.030Z,11.75
2023-05-06T20:56:44.683Z,12.55
2023-05-06T20:59:11.276Z,13.25
2023-05-06T21:01:37.836Z,12.97
2023-05-06T21:04:06.021Z,13.23
2023-05-06T21:06:32.508Z,12.63
2023-05-06T21:08:59.076Z,13.95
2023-05-06T21:11:27.702Z,13.27
2023-05-06T21:13:55.283Z,13.70
2023-05-06T21:16:21.860Z,13.85
2023-05-06T21:18:48.453Z,13.10
2023-05-06T21:21:15.028Z,13.18
2023-05-06T21:23:41.533Z,13.85
2023-05-06T21:26:08.998Z,14.07
2023-05-06T21:28:36.529Z,13.15
2023-05-06T21:31:03.532Z,14.13
2023-05-06T21:33:30.083Z,14.07
2023-05-06T21:35:56.519Z,13.68
2023-05-06T21:38:22.964Z,13.17
2023-05-06T21:40:49.422Z,12.85
2023-05-06T21:43:17.953Z,11.93
2023-05-06T21:45:44.775Z,10.90
2023-05-06T21:48:11.665Z,10.95
2023-05-06T21:50:38.325Z,10.30
2023-05-06T21:53:04.777Z,9.73
2023-05-06T21:55:31.419Z,10.65
2023-05-06T21:57:58.234Z,10.70
2023-05-06T22:00:24.750Z,10.02
2023-05-06T22:02:52.936Z,10.60
2023-05-06T22:05:19.594Z,10.60
2023-05-06T22:07:46.132Z,9.82
2023-05-06T22:10:13.494Z,11.00
2023-05-06T22:12:39.955Z,9.32
2023-05-06T22:15:07.455Z,9.83
2023-05-06T22:17:34.765Z,10.07
2023-05-06T22:20:02.917Z,10.43
2023-05-06T22:22:29.929Z,9.63
2023-05-06T22:24:56.399Z,9.77
2023-05-06T22:27:23.153Z,9.50
2023-05-06T22:29:49.704Z,9.30
2023-05-06T22:32:16.245Z,9.20
2023-05-06T22:34:42.719Z,9.70
2023-05-06T22:37:09.830Z,8.80
2023-05-06T22:39:36.416Z,8.70
2023-05-06T22:42:02.952Z,9.02
2023-05-06T22:44:29.368Z,8.82
2023-05-06T22:46:56.138Z,8.65
2023-05-06T22:49:23.422Z,8.88
2023-05-06T22:51:49.943Z,8.47
2023-05-06T22:54:16.503Z,8.07
2023-05-06T22:56:42.985Z,8.85
2023-05-06T22:59:09.482Z,7.97
2023-05-06T23:01:35.919Z,8.40
2023-05-06T23:04:02.531Z,7.97
2023-05-06T23:06:29.337Z,7.30
2023-05-06T23:08:55.766Z,8.35
2023-05-06T23:11:22.312Z,7.53
2023-05-06T23:13:48.766Z,7.30
2023-05-06T23:16:15.699Z,6.53
2023-05-06T23:18:42.203Z,6.68
2023-05-06T23:21:09.218Z,6.70
2023-05-06T23:23:35.777Z,6.15
2023-05-06T23:26:02.327Z,7.10
2023-05-06T23:28:29.035Z,6.03
2023-05-06T23:30:55.733Z,6.13
2023-05-06T23:33:22.460Z,5.63
2023-05-06T23:35:48.912Z,6.78
2023-05-06T23:38:15.526Z,6.18
2023-05-06T23:40:42.091Z,5.90
2023-05-06T23:43:09.949Z,5.95
2023-05-06T23:45:36.565Z,5.70
2023-05-06T23:48:03.627Z,6.32
2023-05-06T23:50:30.228Z,6.05
2023-05-06T23:52:56.647Z,6.07
2023-05-06T23:55:23.235Z,6.03
2023-05-06T23:57:49.748Z,6.15
